createdAt,value
2022-10-07T00:04:29.954Z,2.30
2022-10-07T00:09:33.553Z,3.10
2022-10-07T00:14:37.098Z,2.60
2022-10-07T00:19:40.679Z,2.70
2022-10-07T00:24:44.843Z,2.60
2022-10-07T00:29:48.327Z,2.10
2022-10-07T00:34:51.744Z,2.60
2022-10-07T00:39:55.050Z,3.00
2022-10-07T00:44:58.458Z,2.80
2022-10-07T00:50:16.720Z,2.70
2022-10-07T00:55:25.096Z,2.40
2022-10-07T01:00:28.890Z,3.10
2022-10-07T01:05:32.492Z,2.90
2022-10-07T01:10:57.311Z,2.60
2022-10-07T01:16:23.622Z,2.50
2022-10-07T01:22:38.554Z,2.30
2022-10-07T01:27:51.746Z,2.70
2022-10-07T01:33:04.674Z,1.80
2022-10-07T01:38:12.343Z,2.80
2022-10-07T01:43:20.917Z,3.10
2022-10-07T01:48:24.517Z,4.00
2022-10-07T01:53:56.686Z,3.10
2022-10-07T01:59:25.798Z,3.60
2022-10-07T02:04:50.001Z,3.00
2022-10-07T02:10:09.595Z,2.80
2022-10-07T02:15:47.650Z,2.90
2022-10-07T02:20:54.436Z,3.50
2022-10-07T02:25:59.183Z,3.50
2022-10-07T02:31:06.050Z,11.00
2022-10-07T02:36:18.250Z,7.40
2022-10-07T02:41:51.999Z,10.60
2022-10-07T02:47:20.300Z,5.10
2022-10-07T02:52:25.539Z,3.90
2022-10-07T02:57:34.705Z,3.60
2022-10-07T03:02:55.015Z,3.60
2022-10-07T03:08:12.182Z,3.60
2022-10-07T03:13:15.972Z,3.00
2022-10-07T03:18:28.762Z,2.50
2022-10-07T03:23:32.324Z,3.00
2022-10-07T03:28:39.160Z,2.90
2022-10-07T03:33:43.448Z,4.00
2022-10-07T03:38:47.069Z,3.90
2022-10-07T03:43:50.381Z,3.80
2022-10-07T03:48:53.977Z,3.70
2022-10-07T03:53:59.177Z,4.60
2022-10-07T03:59:03.180Z,3.30
2022-10-07T04:04:08.031Z,4.20
2022-10-07T04:09:14.973Z,3.30
2022-10-07T04:14:18.338Z,3.80
2022-10-07T04:19:21.857Z,3.50
2022-10-07T04:24:25.372Z,3.70
2022-10-07T04:29:28.983Z,4.40
2022-10-07T04:34:32.412Z,4.40
2022-10-07T04:39:56.408Z,4.00
2022-10-07T04:44:59.406Z,4.10
2022-10-07T04:50:04.360Z,4.10
2022-10-07T04:55:09.521Z,4.10
2022-10-07T05:00:13.639Z,4.10
2022-10-07T05:06:14.352Z,4.10
2022-10-07T05:11:17.707Z,3.90
2022-10-07T05:16:21.136Z,4.70
2022-10-07T05:21:24.533Z,3.50
2022-10-07T05:26:28.152Z,3.40
2022-10-07T05:31:31.910Z,4.40
2022-10-07T05:36:35.854Z,6.00
2022-10-07T05:41:45.216Z,3.60
2022-10-07T05:46:49.693Z,4.00
2022-10-07T05:51:53.003Z,4.20
2022-10-07T05:56:56.518Z,8.30
2022-10-07T06:02:00.747Z,4.00
2022-10-07T06:07:05.705Z,3.70
2022-10-07T06:12:29.701Z,3.70
2022-10-07T06:17:33.065Z,3.90
2022-10-07T06:22:36.321Z,3.50
2022-10-07T06:27:39.846Z,3.70
2022-10-07T06:32:43.149Z,2.90
2022-10-07T06:37:47.279Z,3.70
2022-10-07T06:42:51.006Z,2.90
2022-10-07T06:47:54.723Z,3.80
2022-10-07T06:52:57.951Z,4.00
2022-10-07T06:58:03.428Z,3.30
2022-10-07T07:03:10.596Z,3.60
2022-10-07T07:08:16.057Z,4.20
2022-10-07T07:13:19.573Z,4.10
2022-10-07T07:18:24.639Z,3.20
2022-10-07T07:23:28.655Z,3.80
2022-10-07T07:28:33.376Z,3.50
2022-10-07T07:33:38.626Z,3.60
2022-10-07T07:38:56.852Z,3.70
2022-10-07T07:44:04.941Z,3.40
2022-10-07T07:49:13.373Z,2.70
2022-10-07T07:54:17.503Z,2.30
2022-10-07T07:59:21.650Z,3.20
2022-10-07T08:04:25.365Z,3.80
2022-10-07T08:09:28.794Z,4.10
2022-10-07T08:14:32.189Z,3.20
2022-10-07T08:19:35.881Z,2.90
2022-10-07T08:24:39.119Z,3.60
2022-10-07T08:29:42.567Z,2.50
2022-10-07T08:34:45.839Z,2.90
2022-10-07T08:39:49.257Z,2.50
2022-10-07T08:44:52.971Z,2.90
2022-10-07T08:50:35.064Z,2.70
2022-10-07T08:55:49.155Z,2.70
2022-10-07T09:01:04.073Z,2.80
2022-10-07T09:06:19.551Z,3.90
2022-10-07T09:11:26.226Z,3.10
2022-10-07T09:16:37.934Z,3.00
2022-10-07T09:21:51.390Z,2.70
2022-10-07T09:26:59.947Z,3.00
2022-10-07T09:32:05.266Z,2.50
2022-10-07T09:37:30.402Z,2.60
2022-10-07T09:42:46.008Z,2.70
2022-10-07T09:47:56.993Z,2.50
2022-10-07T09:53:02.657Z,2.20
2022-10-07T09:58:34.332Z,2.50
2022-10-07T10:03:38.707Z,2.30
2022-10-07T10:08:45.877Z,2.80
2022-10-07T10:13:51.879Z,3.10
2022-10-07T10:19:04.719Z,2.30
2022-10-07T10:24:15.469Z,2.40
2022-10-07T10:29:42.639Z,1.80
2022-10-07T10:35:32.272Z,2.40
2022-10-07T10:40:51.009Z,1.90
2022-10-07T10:46:19.056Z,1.70
2022-10-07T10:52:03.181Z,2.20
2022-10-07T10:57:51.727Z,1.60
2022-10-07T11:03:44.830Z,2.20
2022-10-07T11:08:52.911Z,1.90
2022-10-07T11:14:06.291Z,2.60
2022-10-07T11:19:26.418Z,2.00
2022-10-07T11:24:39.642Z,1.80
2022-10-07T11:30:22.481Z,1.90
2022-10-07T11:35:35.018Z,1.90
2022-10-07T11:41:10.213Z,1.40
2022-10-07T11:46:39.232Z,2.40
2022-10-07T11:52:06.272Z,1.60
2022-10-07T11:57:22.992Z,2.50
2022-10-07T12:02:29.601Z,1.80
2022-10-07T12:07:33.486Z,1.80
2022-10-07T12:12:46.915Z,1.70
2022-10-07T12:18:23.966Z,1.70
2022-10-07T12:23:31.213Z,2.00
2022-10-07T12:28:42.030Z,2.00
2022-10-07T12:33:57.977Z,1.40
2022-10-07T12:39:01.215Z,1.50
2022-10-07T12:44:45.825Z,1.50
2022-10-07T12:49:54.866Z,2.00
2022-10-07T12:55:03.011Z,1.90
2022-10-07T13:00:22.694Z,1.80
2022-10-07T13:06:04.005Z,1.40
2022-10-07T13:11:31.678Z,1.90
2022-10-07T13:16:54.457Z,2.10
2022-10-07T13:22:14.345Z,3.60
2022-10-07T13:27:31.212Z,1.40
2022-10-07T13:32:36.430Z,1.80
2022-10-07T13:37:46.937Z,1.60
2022-10-07T13:43:01.386Z,2.40
2022-10-07T13:48:05.542Z,2.00
2022-10-07T13:53:22.034Z,2.30
2022-10-07T13:58:25.617Z,1.90
2022-10-07T14:03:29.064Z,2.50
2022-10-07T14:08:32.996Z,2.30
2022-10-07T14:13:38.107Z,2.80
2022-10-07T14:18:44.439Z,2.00
2022-10-07T14:23:47.806Z,2.80
2022-10-07T14:28:51.282Z,2.00
2022-10-07T14:34:16.172Z,2.20
2022-10-07T14:39:31.152Z,2.50
2022-10-07T14:44:35.389Z,4.20
2022-10-07T14:49:39.010Z,2.60
2022-10-07T14:54:42.526Z,2.10
2022-10-07T14:59:50.045Z,2.80
2022-10-07T15:04:53.598Z,3.00
2022-10-07T15:09:57.308Z,2.20
2022-10-07T15:15:00.590Z,2.10
2022-10-07T15:20:05.456Z,2.20
2022-10-07T15:25:11.847Z,3.00
2022-10-07T15:30:15.640Z,2.90
2022-10-07T15:35:19.051Z,2.50
2022-10-07T15:40:22.572Z,5.40
2022-10-07T15:45:27.108Z,6.10
2022-10-07T15:50:32.472Z,4.80
2022-10-07T15:55:35.888Z,5.60
2022-10-07T16:00:40.264Z,6.30
2022-10-07T16:05:45.166Z,9.70
2022-10-07T16:10:48.894Z,10.30
2022-10-07T16:15:58.664Z,9.10
2022-10-07T16:21:18.143Z,5.60
2022-10-07T16:26:27.187Z,4.90
2022-10-07T16:31:32.924Z,3.70
2022-10-07T16:36:36.928Z,8.90
2022-10-07T16:41:44.324Z,11.80
2022-10-07T16:46:48.710Z,10.10
2022-10-07T16:51:53.289Z,6.40
2022-10-07T16:56:57.858Z,6.40
2022-10-07T17:02:03.423Z,6.40
2022-10-07T17:07:06.888Z,7.00
2022-10-07T17:12:10.203Z,13.30
2022-10-07T17:17:13.611Z,16.00
2022-10-07T17:22:17.021Z,11.70
2022-10-07T17:27:20.315Z,8.80
2022-10-07T17:32:24.446Z,10.00
2022-10-07T17:37:27.791Z,9.80
2022-10-07T17:42:31.183Z,9.00
2022-10-07T17:47:34.514Z,8.00
2022-10-07T17:52:37.946Z,7.90
2022-10-07T17:57:41.640Z,9.00
2022-10-07T18:02:45.063Z,9.10
2022-10-07T18:07:48.799Z,8.70
2022-10-07T18:13:11.343Z,11.40
2022-10-07T18:18:15.895Z,10.60
2022-10-07T18:23:20.432Z,10.50
2022-10-07T18:28:24.182Z,11.90
2022-10-07T18:33:27.880Z,12.00
2022-10-07T18:38:39.983Z,12.90
2022-10-07T18:43:45.626Z,10.60
2022-10-07T18:48:49.268Z,10.40
2022-10-07T18:53:52.574Z,11.30
2022-10-07T18:58:55.885Z,11.20
2022-10-07T19:04:02.546Z,10.80
2022-10-07T19:09:12.135Z,9.00
2022-10-07T19:14:16.818Z,9.30
2022-10-07T19:19:23.879Z,10.20
2022-10-07T19:24:46.237Z,8.00
2022-10-07T19:29:51.192Z,9.30
2022-10-07T19:34:54.598Z,8.30
2022-10-07T19:39:57.935Z,8.80
2022-10-07T19:45:01.324Z,8.30
2022-10-07T19:50:05.250Z,9.40
2022-10-07T19:55:09.965Z,9.50
2022-10-07T20:00:14.262Z,9.60
2022-10-07T20:05:18.486Z,9.20
2022-10-07T20:10:22.984Z,9.90
2022-10-07T20:15:26.209Z,14.30
2022-10-07T20:20:29.551Z,10.90
2022-10-07T20:25:32.866Z,8.50
2022-10-07T20:30:36.349Z,8.10
2022-10-07T20:35:39.972Z,11.00
2022-10-07T20:41:01.765Z,12.00
2022-10-07T20:46:05.760Z,10.70
2022-10-07T20:51:09.155Z,9.60
2022-10-07T20:56:12.464Z,9.70
2022-10-07T21:01:15.848Z,10.30
2022-10-07T21:06:19.395Z,9.60
2022-10-07T21:11:22.813Z,9.10
2022-10-07T21:16:30.639Z,9.80
2022-10-07T21:21:34.346Z,9.40
2022-10-07T21:26:38.067Z,10.10
2022-10-07T21:31:42.608Z,9.80
2022-10-07T21:36:50.281Z,9.60
2022-10-07T21:41:58.243Z,10.40
2022-10-07T21:47:01.675Z,13.40
2022-10-07T21:52:05.325Z,10.10
2022-10-07T21:57:08.688Z,8.80
2022-10-07T22:02:12.187Z,11.00
2022-10-07T22:07:34.356Z,9.20
2022-10-07T22:12:37.778Z,8.70
2022-10-07T22:17:41.492Z,8.20
2022-10-07T22:22:45.041Z,9.50
2022-10-07T22:27:51.905Z,9.30
2022-10-07T22:32:55.113Z,9.20
2022-10-07T22:37:59.351Z,9.50
2022-10-07T22:43:02.958Z,10.50
2022-10-07T22:48:06.737Z,13.10
2022-10-07T22:53:09.999Z,12.60
2022-10-07T22:58:13.829Z,13.10
2022-10-07T23:03:17.228Z,10.10
2022-10-07T23:08:20.957Z,8.20
2022-10-07T23:13:27.339Z,6.50
2022-10-07T23:18:31.651Z,7.40
2022-10-07T23:23:37.777Z,9.30
2022-10-07T23:28:42.061Z,8.60
2022-10-07T23:33:47.774Z,9.10
2022-10-07T23:38:52.605Z,6.30
2022-10-07T23:43:59.739Z,7.10
2022-10-07T23:49:04.652Z,8.80
2022-10-07T23:54:08.072Z,9.80
2022-10-07T23:59:12.195Z,10.30
